Stations météo

Publicité
Paris St-Maur, France (7154): Température de l'air & dewpoint: 12.12.2017 17:00:00 - 18.12.2017 17:00:00 (CET)Paris St-Maur, France (7154): Vitesse du vent & gusts: 12.12.2017 17:00:00 - 18.12.2017 17:00:00 (CET)Paris St-Maur, France (7154): Direction du vent: 12.12.2017 17:00:00 - 18.12.2017 17:00:00 (CET)Paris St-Maur, France (7154): Quantités de précipitations: 12.12.2017 17:00:00 - 18.12.2017 17:00:00 (CET)
Date & Time tt [°C] td [°C] ff [km/h] ff [knt] fx [km/h] fx [knt] dd rr [mm]
18.12.2017 17:00:00 - - - - - - - -
18.12.2017 16:00:00 7,6 3,1 16 9 29 16 N 0,0
18.12.2017 15:00:00 8,0 2,9 21 11 42 23 N 0,0
18.12.2017 14:00:00 8,0 4,0 18 10 35 19 N 0,0
18.12.2017 13:00:00 8,0 4,2 22 12 42 23 N -
18.12.2017 12:00:00 7,3 4,6 22 12 42 23 N 0,0
18.12.2017 11:00:00 6,7 4,7 22 12 39 21 N 0,0
18.12.2017 10:00:00 6,3 4,9 15 8 29 16 N 0,0
18.12.2017 09:00:00 6,3 5,1 16 9 34 18 N 0,0
18.12.2017 08:00:00 6,3 5,3 16 9 39 21 NNW 0,0
18.12.2017 07:00:00 7,6 6,8 18 10 29 16 NNW -
18.12.2017 06:00:00 8,5 7,7 9 5 28 15 NW 0,0
18.12.2017 05:00:00 8,3 7,5 13 7 26 14 WNW 0,0
18.12.2017 04:00:00 6,7 6,0 8 4 21 11 SW 0,3
18.12.2017 03:00:00 6,3 5,6 9 5 31 17 SW 0,2
18.12.2017 02:00:00 5,7 5,0 15 8 34 18 SW 1,0
18.12.2017 01:00:00 5,2 4,3 18 10 31 17 SSW -
18.12.2017 00:00:00 4,7 3,8 16 9 29 16 S 2,0
17.12.2017 23:00:00 4,3 3,4 13 7 31 17 S 0,0
17.12.2017 22:00:00 4,1 2,9 15 8 31 17 S 0,2
17.12.2017 21:00:00 4,2 3,0 15 8 28 15 S 0,2
17.12.2017 20:00:00 4,1 2,9 11 6 22 12 S 0,0
17.12.2017 19:00:00 4,0 2,7 9 5 22 12 SSW -
17.12.2017 18:00:00 3,9 2,4 16 9 22 12 S 0,0
17.12.2017 17:00:00 3,7 2,4 8 4 11 6 S 0,0
17.12.2017 16:00:00 4,2 2,4 8 4 15 8 SSE 0,0
17.12.2017 15:00:00 4,6 2,8 5 3 11 6 SE 0,0
17.12.2017 14:00:00 5,0 3,2 5 3 9 5 SE 0,0
17.12.2017 13:00:00 3,9 3,3 4 2 8 4 SE -
17.12.2017 12:00:00 3,4 2,8 2 1 8 4 E 0,0
17.12.2017 11:00:00 2,5 1,9 4 2 8 4 NNE 0,0
17.12.2017 10:00:00 1,2 0,6 4 2 8 4 NNE 0,0
17.12.2017 09:00:00 0,6 -0,1 4 2 8 4 NNE 0,0
17.12.2017 08:00:00 1,2 0,5 5 3 11 6 NNW 0,0
17.12.2017 07:00:00 1,5 0,8 8 4 13 7 NNW -
17.12.2017 06:00:00 2,1 1,2 11 6 16 9 NW 0,0
17.12.2017 05:00:00 2,8 1,8 8 4 16 9 NW 0,0
17.12.2017 04:00:00 3,3 2,1 8 4 16 9 NW 0,0
17.12.2017 03:00:00 4,1 2,6 9 5 18 10 W 0,8
17.12.2017 02:00:00 4,0 2,3 4 2 16 9 W 0,2
17.12.2017 01:00:00 4,2 2,2 9 5 18 10 W -
17.12.2017 00:00:00 4,1 1,6 8 4 18 10 WSW 0,0
16.12.2017 23:00:00 4,0 1,4 9 5 18 10 WSW 0,4
16.12.2017 22:00:00 4,5 0,6 11 6 18 10 WNW 0,2
16.12.2017 21:00:00 4,4 -0,8 11 6 24 13 WNW 0,0
16.12.2017 20:00:00 3,4 -1,0 11 6 24 13 WNW 0,0
16.12.2017 19:00:00 4,0 -0,8 13 7 24 13 WNW -
16.12.2017 18:00:00 4,7 -0,7 13 7 26 14 WNW 0,0
16.12.2017 17:00:00 5,3 -0,5 15 8 28 15 NW 0,0
16.12.2017 16:00:00 5,8 -0,7 13 7 34 18 NNW 0,0
16.12.2017 15:00:00 7,2 -0,3 18 10 31 17 NW 0,0
16.12.2017 14:00:00 6,4 1,5 13 7 24 13 N 0,0
16.12.2017 13:00:00 5,9 1,6 15 8 28 15 N -
16.12.2017 12:00:00 6,1 1,4 11 6 31 17 NW 0,0
16.12.2017 11:00:00 5,4 1,5 16 9 28 15 NW 0,0
16.12.2017 10:00:00 5,0 1,8 13 7 26 14 NW 0,0
16.12.2017 09:00:00 4,1 1,5 15 8 26 14 NNW 0,0
16.12.2017 08:00:00 4,4 1,8 15 8 28 15 NNW 0,0
16.12.2017 07:00:00 4,6 1,6 15 8 39 21 NNW -
16.12.2017 06:00:00 4,9 2,1 18 10 35 19 NNW 0,2
16.12.2017 05:00:00 5,1 2,8 21 11 41 22 NNW 0,0
16.12.2017 04:00:00 5,0 3,2 13 7 21 11 NNW 0,0
16.12.2017 03:00:00 4,9 3,2 11 6 31 17 NNW 0,2
16.12.2017 02:00:00 5,2 2,7 13 7 31 17 NNW 0,0
16.12.2017 01:00:00 5,2 2,7 22 12 39 21 NNW -
16.12.2017 00:00:00 5,1 2,6 21 11 35 19 NW 0,0
15.12.2017 23:00:00 4,7 2,6 21 11 35 19 NW 0,0
15.12.2017 22:00:00 4,4 2,1 18 10 41 22 NW 0,0
15.12.2017 21:00:00 4,7 2,2 13 7 29 16 NW 0,0
15.12.2017 20:00:00 4,1 1,6 16 9 34 18 NW 0,0
15.12.2017 19:00:00 4,5 2,4 22 12 37 20 NNW -
15.12.2017 18:00:00 4,5 2,5 16 9 35 19 NNW 0,0
15.12.2017 17:00:00 5,2 3,4 15 8 29 16 NNW 0,4
15.12.2017 16:00:00 5,8 3,6 13 7 34 18 WSW 0,2
15.12.2017 15:00:00 5,7 3,2 15 8 39 21 SW 0,4
15.12.2017 14:00:00 6,2 3,2 22 12 44 24 SW 0,2
15.12.2017 13:00:00 6,2 3,2 22 12 48 26 SSW -
15.12.2017 12:00:00 5,4 2,9 18 10 41 22 SSW 0,4
15.12.2017 11:00:00 5,6 2,2 18 10 35 19 SSW 0,0
15.12.2017 10:00:00 4,6 2,1 15 8 28 15 SSW 0,0
15.12.2017 09:00:00 3,9 1,8 13 7 24 13 SSW 0,0
15.12.2017 08:00:00 4,5 1,7 13 7 26 14 SSW 0,0
15.12.2017 07:00:00 5,3 2,3 13 7 35 19 SW -
15.12.2017 06:00:00 5,9 2,7 15 8 39 21 WSW 0,0
15.12.2017 05:00:00 5,8 2,4 18 10 42 23 WSW 0,0
15.12.2017 04:00:00 5,5 2,3 24 13 41 22 SW 0,0
15.12.2017 03:00:00 4,4 1,9 21 11 41 22 SSW 0,0
15.12.2017 02:00:00 4,1 1,6 18 10 35 19 SSW 0,0
15.12.2017 01:00:00 4,0 1,5 16 9 34 18 SSW -
15.12.2017 00:00:00 4,2 1,7 16 9 34 18 SSW 0,0
14.12.2017 23:00:00 4,6 2,0 15 8 39 21 SW 0,0
14.12.2017 22:00:00 5,2 2,7 21 11 35 19 SW 0,2
14.12.2017 21:00:00 4,4 2,6 9 5 24 13 WSW 0,0
14.12.2017 20:00:00 4,4 2,1 15 8 34 18 SSW 0,0
14.12.2017 19:00:00 4,6 2,3 16 9 42 23 SW -
14.12.2017 18:00:00 6,2 4,0 11 6 37 20 SSW 0,0
14.12.2017 17:00:00 6,7 3,7 21 11 35 19 SW 0,2
14.12.2017 16:00:00 7,4 3,4 22 12 39 21 SW 0,2
14.12.2017 15:00:00 7,8 3,1 18 10 46 25 SW 0,0
14.12.2017 14:00:00 7,5 3,5 16 9 37 20 SSW 0,0
14.12.2017 13:00:00 6,8 3,8 21 11 37 20 SW -
14.12.2017 12:00:00 6,6 2,9 26 14 52 28 SSW 0,0
14.12.2017 11:00:00 6,5 2,0 21 11 42 23 SW 0,0
14.12.2017 10:00:00 5,6 1,5 22 12 41 22 SSW 0,0
14.12.2017 09:00:00 5,0 1,5 21 11 50 27 SSW 0,0
14.12.2017 08:00:00 5,1 1,6 26 14 46 25 SW 0,0
14.12.2017 07:00:00 5,2 1,5 21 11 37 20 SW -
14.12.2017 06:00:00 5,1 1,6 16 9 39 21 SSW 0,0
14.12.2017 05:00:00 6,0 0,9 22 12 44 24 WSW 0,0
14.12.2017 04:00:00 6,5 0,4 28 15 55 30 W 0,0
14.12.2017 03:00:00 6,8 1,3 26 14 65 35 W 0,0
14.12.2017 02:00:00 7,2 3,2 22 12 81 44 W 0,2
14.12.2017 01:00:00 8,2 5,1 41 22 76 41 WSW -
14.12.2017 00:00:00 8,1 5,0 18 10 35 19 SW 0,0
13.12.2017 23:00:00 8,0 4,6 21 11 48 26 WSW 0,0
13.12.2017 22:00:00 8,6 6,4 16 9 48 26 W 0,0
13.12.2017 21:00:00 8,9 7,3 22 12 42 23 W 2,0
13.12.2017 20:00:00 9,2 8,3 16 9 44 24 SSW 2,0
13.12.2017 19:00:00 9,0 7,9 21 11 41 22 SSW -
13.12.2017 18:00:00 8,9 7,7 22 12 48 26 SSW 0,8
13.12.2017 17:00:00 8,7 7,3 16 9 39 21 SSW 1,0
13.12.2017 16:00:00 9,0 7,0 22 12 42 23 SSW 0,0
13.12.2017 15:00:00 8,6 6,9 21 11 35 19 SSW 0,0
13.12.2017 14:00:00 8,1 6,9 15 8 39 21 SSW 0,0
13.12.2017 13:00:00 7,6 6,5 21 11 37 20 SSW -
13.12.2017 12:00:00 7,0 6,1 16 9 37 20 SSW 0,2
13.12.2017 11:00:00 6,2 5,2 18 10 37 20 SSW 1,0
13.12.2017 10:00:00 5,8 4,6 22 12 48 26 S 4,0
13.12.2017 09:00:00 5,5 4,1 28 15 55 30 SSW 2,0
13.12.2017 08:00:00 5,1 3,3 26 14 63 34 S 0,6
13.12.2017 07:00:00 5,2 2,5 24 13 46 25 S -
13.12.2017 06:00:00 4,8 2,0 24 13 44 24 S 0,0
13.12.2017 05:00:00 3,9 1,6 16 9 41 22 S 0,0
13.12.2017 04:00:00 3,4 1,4 18 10 29 16 S 0,0
13.12.2017 03:00:00 3,1 1,1 13 7 28 15 S 0,0
13.12.2017 02:00:00 3,3 1,2 15 8 29 16 S 0,0
13.12.2017 01:00:00 3,3 1,0 16 9 34 18 S -
13.12.2017 00:00:00 3,4 1,1 16 9 29 16 S 0,0
12.12.2017 23:00:00 3,1 1,5 13 7 26 14 S 0,0
12.12.2017 22:00:00 2,7 1,5 9 5 15 8 SSE 0,0
12.12.2017 21:00:00 2,3 1,3 8 4 11 6 SSE 0,0
12.12.2017 20:00:00 2,1 0,6 8 4 13 7 S 0,0
12.12.2017 19:00:00 2,9 1,1 9 5 18 10 SSW -
12.12.2017 18:00:00 3,4 1,0 11 6 15 8 S 0,0
12.12.2017 17:00:00 4,4 1,1 9 5 18 10 SSW 0,0

tt = Température de l'air
td = dewpoint
ff = Vitesse du vent
fx = gusts
dd = Direction du vent
rr = Quantités de précipitations

stations d'obs. à proximité